Disclaimer

Please do not use the information listed here in-flight or in-navigation, as they are not provided to us by the airports but are provided by volunteers, so they might be outdated.

Search


Regions


Airport information page

No radio frequency information is available.

Airport informations:
Latitude: 11° 32' 47.60" N
Longitude: 104° 50' 38.90" E
Elevation: 40 feet - 12 meters
Operating hours: Remarks
Operating agency: Military-civil joint use airport
Timezone: UTC+7
Fuel: Jet A1, without icing nhibitor.

Aviation Gasoline (AVGAS), octane unknown.

Runway information:
05/23 - 9843 x 144 feet< - >3000 x 44 meters

Recent METARs:
VDPP 182300Z VRB03KT 9000 SCT017 SCT040 26/25 Q1010
VDPP 182330Z VRB02KT 9000 SCT017 SCT040 26/25 Q1011
VDPP 190000Z 01004KT 330V070 9000 -RA SCT015 FEW017CB BKN040 27/25 Q1011 CB:N/W

Airport on the map: